Airfield :
LOGIN :

Register | Disclaimer

   EN    FR    IT 

 










Legend :    VFR   Marginal VFR   IFR   Intensive IFR   Very Intensive IFR
Visi :
Ceiling :
>= 8 km
>= 3000ft
5 to 8 km
1000 to 3000 ft
1500m to 5 km
500 to 1000 ft
800 to 1500m
200 to 500 ft
< 800m
< 200 ft
Symbols :   Thunderstorms  Fog  Heavy snow  Heavy precipitations  Wind > 20 kt
SIGMETs :     Misc.  Thunderstorms  Icing  Turbulence  Mountain Waves  Volcanic Ashes






- Airport Elevation : 17 ft
- IATA code : GRS


LIRS - Grosseto

CURRENT METAR :
  • 201355Z 22005KT 9999 FEW020CB SCT023 15/10 Q1012

EXPIRED METARs :
  • 201255Z 25006KT 9999 FEW020CB 16/10 Q1012 RMK SCT VIS MIN 9999 WIND THR03 24006KT WIND THR21 25006KT BLU
  • 201155Z 21003KT 9999 FEW020CB FEW023TCU 16/11 Q1012 RMK BKN SCT090 VIS MIN 9999 WIND THR03 22003KT WIND THR21 22004KT BLU

TAF TAF LIRS
Valid from the 20 at 15:00 until the 21 at 00:00 UTC


201400Z 2015/2024 23005KT 9999 FEW020 SCT060
TEMPO 2018/2024 RA SCT020 BKN060



MET'MAP, your aeronautical weather chart ! - Copyright ORBIFLY December 2007 - Disclaimer

ORBIFLY MET'MAP TEAM :

Programming & Development : Alexandra Zaïnal
Concept & Development : Baudouin d'Aumeries
Co-Development & Prog : Marc-Olivier Méhu
Technical & hardware support : Manuel Goepfert

Contact : metmap@orbifly.com




SOURCES & CREDITS :

   NOAA